createdAt,value
2018-04-18T00:00:48.453Z,5.03
2018-04-18T00:03:15.949Z,5.57
2018-04-18T00:05:43.454Z,5.10
2018-04-18T00:08:10.960Z,5.07
2018-04-18T00:10:38.450Z,5.67
2018-04-18T00:13:06.722Z,5.67
2018-04-18T00:15:34.998Z,5.30
2018-04-18T00:18:03.639Z,5.40
2018-04-18T00:20:31.144Z,5.10
2018-04-18T00:22:59.410Z,4.93
2018-04-18T00:25:27.653Z,5.20
2018-04-18T00:27:55.162Z,5.93
2018-04-18T00:30:22.651Z,5.30
2018-04-18T00:32:50.166Z,6.33
2018-04-18T00:35:17.657Z,5.60
2018-04-18T00:37:45.130Z,5.40
2018-04-18T00:40:12.657Z,6.53
2018-04-18T00:42:40.444Z,6.20
2018-04-18T00:45:07.973Z,6.07
2018-04-18T00:47:35.452Z,6.63
2018-04-18T00:50:02.965Z,5.60
2018-04-18T00:52:31.218Z,5.83
2018-04-18T00:54:59.489Z,5.23
2018-04-18T00:57:26.966Z,5.87
2018-04-18T00:59:55.234Z,5.50
2018-04-18T01:02:23.482Z,5.13
2018-04-18T01:04:51.083Z,5.80
2018-04-18T01:07:18.585Z,5.93
2018-04-18T01:09:46.099Z,6.00
2018-04-18T01:12:13.615Z,5.60
2018-04-18T01:14:41.100Z,5.50
2018-04-18T01:17:08.617Z,4.77
2018-04-18T01:19:36.185Z,5.10
2018-04-18T01:22:03.690Z,5.53
2018-04-18T01:24:31.170Z,5.57
2018-04-18T01:26:58.685Z,4.77
2018-04-18T01:29:26.221Z,6.40
2018-04-18T01:31:53.701Z,4.80
2018-04-18T01:34:21.978Z,4.97
2018-04-18T01:36:50.242Z,5.23
2018-04-18T01:39:18.510Z,5.07
2018-04-18T01:41:46.757Z,5.13
2018-04-18T01:44:14.265Z,5.00
2018-04-18T01:46:41.749Z,5.70
2018-04-18T01:49:22.066Z,5.37
2018-04-18T01:51:50.313Z,4.80
2018-04-18T01:54:17.830Z,4.83
2018-04-18T01:56:45.310Z,5.03
2018-04-18T01:59:12.800Z,5.33
2018-04-18T02:01:41.008Z,4.70
2018-04-18T02:04:08.489Z,5.00
2018-04-18T02:06:35.997Z,5.17
2018-04-18T02:09:03.461Z,4.40
2018-04-18T02:11:30.941Z,4.93
2018-04-18T02:13:58.434Z,5.83
2018-04-18T02:16:25.904Z,4.33
2018-04-18T02:18:53.401Z,4.50
2018-04-18T02:21:20.868Z,6.40
2018-04-18T02:23:48.372Z,4.50
2018-04-18T02:26:15.850Z,4.87
2018-04-18T02:28:44.118Z,5.03
2018-04-18T02:31:12.596Z,4.93
2018-04-18T02:33:40.860Z,4.87
2018-04-18T02:36:08.325Z,5.57
2018-04-18T02:38:35.840Z,5.80
2018-04-18T02:41:03.342Z,4.90
2018-04-18T02:43:31.601Z,6.10
2018-04-18T02:45:59.078Z,6.30
2018-04-18T02:48:27.336Z,4.90
2018-04-18T02:50:54.811Z,4.70
2018-04-18T02:53:23.075Z,5.20
2018-04-18T02:55:51.309Z,4.83
2018-04-18T02:58:18.805Z,5.13
2018-04-18T03:00:47.050Z,4.30
2018-04-18T03:03:14.546Z,5.23
2018-04-18T03:05:42.788Z,4.53
2018-04-18T03:08:10.314Z,4.87
2018-04-18T03:10:37.796Z,5.30
2018-04-18T03:13:05.271Z,4.93
2018-04-18T03:15:32.767Z,4.13
2018-04-18T03:18:00.238Z,4.37
2018-04-18T03:20:27.737Z,5.17
2018-04-18T03:22:55.216Z,5.63
2018-04-18T03:25:23.442Z,5.30
2018-04-18T03:27:51.711Z,4.47
2018-04-18T03:30:19.241Z,5.50
2018-04-18T03:32:46.736Z,6.10
2018-04-18T03:35:14.239Z,5.10
2018-04-18T03:37:41.754Z,4.53
2018-04-18T03:40:09.223Z,5.27
2018-04-18T03:42:36.717Z,4.53
2018-04-18T03:45:04.194Z,5.50
2018-04-18T03:47:31.741Z,4.27
2018-04-18T03:49:59.227Z,5.50
2018-04-18T03:52:26.744Z,5.00
2018-04-18T03:54:54.217Z,4.60
2018-04-18T03:57:22.460Z,4.90
2018-04-18T03:59:50.718Z,4.20
2018-04-18T04:02:18.190Z,4.70
2018-04-18T04:04:45.699Z,3.90
2018-04-18T04:07:13.182Z,4.30
2018-04-18T04:09:40.676Z,4.80
2018-04-18T04:12:08.146Z,3.17
2018-04-18T04:14:35.632Z,4.77
2018-04-18T04:17:14.840Z,5.23
2018-04-18T04:19:54.238Z,4.60
2018-04-18T04:22:34.278Z,3.87
2018-04-18T04:25:02.560Z,4.90
2018-04-18T04:27:30.830Z,4.40
2018-04-18T04:29:59.093Z,5.27
2018-04-18T04:32:26.586Z,5.20
2018-04-18T04:34:54.068Z,5.07
2018-04-18T04:37:21.580Z,5.67
2018-04-18T04:39:49.840Z,5.73
2018-04-18T04:42:17.345Z,7.13
2018-04-18T04:44:44.826Z,4.50
2018-04-18T04:47:12.338Z,5.20
2018-04-18T04:49:39.841Z,5.40
2018-04-18T04:52:08.017Z,5.10
2018-04-18T04:54:35.550Z,4.97
2018-04-18T04:57:03.053Z,5.27
2018-04-18T04:59:30.569Z,4.47
2018-04-18T05:01:58.062Z,4.60
2018-04-18T05:04:25.538Z,6.13
2018-04-18T05:06:53.902Z,4.90
2018-04-18T05:09:22.335Z,5.50
2018-04-18T05:11:49.857Z,4.67
2018-04-18T05:14:18.089Z,4.63
2018-04-18T05:16:45.576Z,4.70
2018-04-18T05:19:13.853Z,5.30
2018-04-18T05:21:42.114Z,5.33
2018-04-18T05:24:10.483Z,5.43
2018-04-18T05:26:38.012Z,5.07
2018-04-18T05:29:05.490Z,5.60
2018-04-18T05:31:33.008Z,5.07
2018-04-18T05:34:00.521Z,4.50
2018-04-18T05:36:28.332Z,5.67
2018-04-18T05:38:55.846Z,5.87
2018-04-18T05:41:24.127Z,5.90
2018-04-18T05:43:52.420Z,5.80
2018-04-18T05:46:19.910Z,6.13
2018-04-18T05:48:47.424Z,5.47
2018-04-18T05:51:14.953Z,6.13
2018-04-18T05:53:42.429Z,6.43
2018-04-18T05:56:10.678Z,6.70
2018-04-18T05:58:38.196Z,6.70
2018-04-18T06:01:06.472Z,5.90
2018-04-18T06:03:33.953Z,6.20
2018-04-18T06:06:01.430Z,7.50
2018-04-18T06:08:28.974Z,7.00
2018-04-18T06:10:57.168Z,7.07
2018-04-18T06:13:24.649Z,6.10
2018-04-18T06:15:52.201Z,7.13
2018-04-18T06:18:20.469Z,6.17
2018-04-18T06:20:48.724Z,7.07
2018-04-18T06:23:16.239Z,6.70
2018-04-18T06:25:43.735Z,7.30
2018-04-18T06:28:11.269Z,7.20
2018-04-18T06:30:38.933Z,7.33
2018-04-18T06:33:07.012Z,6.40
2018-04-18T06:35:35.312Z,7.50
2018-04-18T06:38:02.834Z,6.50
2018-04-18T06:40:30.386Z,7.43
2018-04-18T06:43:02.696Z,6.83
2018-04-18T06:45:30.252Z,7.50
2018-04-18T06:47:57.763Z,8.50
2018-04-18T06:50:25.314Z,6.90
2018-04-18T06:52:52.897Z,6.90
2018-04-18T06:55:20.389Z,7.00
2018-04-18T06:57:48.736Z,8.07
2018-04-18T07:00:16.305Z,8.07
2018-04-18T07:02:43.832Z,7.83
2018-04-18T07:05:11.378Z,8.30
2018-04-18T07:07:38.902Z,7.40
2018-04-18T07:10:06.499Z,6.87
2018-04-18T07:12:34.058Z,8.13
2018-04-18T07:15:01.664Z,7.40
2018-04-18T07:17:29.174Z,8.33
2018-04-18T07:19:56.698Z,9.00
2018-04-18T07:22:25.074Z,7.70
2018-04-18T07:24:52.643Z,8.70
2018-04-18T07:27:20.173Z,7.60
2018-04-18T07:29:47.693Z,8.37
2018-04-18T07:32:15.241Z,8.30
2018-04-18T07:34:42.761Z,7.40
2018-04-18T07:37:10.277Z,8.57
2018-04-18T07:39:37.810Z,7.60
2018-04-18T07:42:05.456Z,7.87
2018-04-18T07:44:33.475Z,9.00
2018-04-18T07:47:01.472Z,6.20
2018-04-18T07:49:29.806Z,8.33
2018-04-18T07:51:57.322Z,7.70
2018-04-18T07:54:24.985Z,7.63
2018-04-18T07:56:52.545Z,7.70
2018-04-18T07:59:20.169Z,8.40
2018-04-18T08:01:47.688Z,7.43
2018-04-18T08:04:15.233Z,8.53
2018-04-18T08:06:42.814Z,6.80
2018-04-18T08:09:10.381Z,6.40
2018-04-18T08:11:38.765Z,6.90
2018-04-18T08:14:06.400Z,7.23
2018-04-18T08:16:33.942Z,8.10
2018-04-18T08:19:01.457Z,7.13
2018-04-18T08:21:28.994Z,7.80
2018-04-18T08:23:56.494Z,9.00
2018-04-18T08:26:24.971Z,8.27
2018-04-18T08:28:52.519Z,8.30
2018-04-18T08:31:20.788Z,8.87
2018-04-18T08:33:49.440Z,9.10
2018-04-18T08:38:50.964Z,11.97
2018-04-18T08:41:18.506Z,12.50
2018-04-18T08:43:46.057Z,13.03
2018-04-18T08:46:13.565Z,13.90
2018-04-18T08:48:41.128Z,12.90
2018-04-18T08:51:08.631Z,14.83
2018-04-18T08:53:36.956Z,14.00
2018-04-18T08:56:04.629Z,13.70
2018-04-18T08:58:32.867Z,14.20
2018-04-18T09:01:00.429Z,14.03
2018-04-18T09:03:27.985Z,12.50
2018-04-18T09:05:55.583Z,13.10
2018-04-18T09:08:23.463Z,11.73
2018-04-18T09:10:51.021Z,13.93
2018-04-18T09:13:18.550Z,14.00
2018-04-18T09:15:46.210Z,10.73
2018-04-18T09:18:13.730Z,10.20
2018-04-18T09:20:41.317Z,12.80
2018-04-18T09:23:08.890Z,11.83
2018-04-18T09:25:36.425Z,11.30
2018-04-18T09:28:04.021Z,12.43
2018-04-18T09:30:31.615Z,12.87
2018-04-18T09:32:59.169Z,12.20
2018-04-18T09:35:26.726Z,12.83
2018-04-18T09:37:55.169Z,11.60
2018-04-18T09:40:22.708Z,13.90
2018-04-18T09:42:51.895Z,13.07
2018-04-18T09:45:19.509Z,13.30
2018-04-18T09:47:47.057Z,12.40
2018-04-18T09:50:15.437Z,13.80
2018-04-18T09:52:43.000Z,12.60
2018-04-18T09:55:11.307Z,11.07
2018-04-18T09:57:38.887Z,12.90
2018-04-18T10:00:06.439Z,13.20
2018-04-18T10:02:38.032Z,11.57
2018-04-18T10:05:07.447Z,12.23
2018-04-18T10:07:35.006Z,11.23
2018-04-18T10:10:02.739Z,9.80
2018-04-18T10:12:31.558Z,11.73
2018-04-18T10:15:00.208Z,11.00
2018-04-18T10:17:28.423Z,11.23
2018-04-18T10:19:56.838Z,9.70
2018-04-18T10:22:24.349Z,11.13
2018-04-18T10:24:52.714Z,10.17
2018-04-18T10:27:20.289Z,8.20
2018-04-18T10:29:48.621Z,8.30
2018-04-18T10:32:16.164Z,8.13
2018-04-18T10:34:43.725Z,7.30
2018-04-18T10:37:11.296Z,7.60
2018-04-18T10:39:39.759Z,7.70
2018-04-18T10:42:07.799Z,6.20
2018-04-18T10:44:35.294Z,7.17
2018-04-18T10:47:03.657Z,7.20
2018-04-18T10:49:31.174Z,6.93
2018-04-18T10:51:58.734Z,6.67
2018-04-18T10:54:27.069Z,5.60
2018-04-18T10:56:54.865Z,6.37
2018-04-18T10:59:23.148Z,7.00
2018-04-18T11:01:51.369Z,6.27
2018-04-18T11:04:19.005Z,6.93
2018-04-18T11:06:46.545Z,6.37
2018-04-18T11:09:14.807Z,6.10
2018-04-18T11:11:42.330Z,6.50
2018-04-18T11:14:09.885Z,7.00
2018-04-18T11:16:37.999Z,6.47
2018-04-18T11:19:05.567Z,6.70
2018-04-18T11:21:33.856Z,6.20
2018-04-18T11:24:01.371Z,5.50
2018-04-18T11:26:29.683Z,4.93
2018-04-18T11:28:58.203Z,5.40
2018-04-18T11:31:26.379Z,5.60
2018-04-18T11:33:53.937Z,6.03
2018-04-18T11:36:21.399Z,6.40
2018-04-18T11:38:48.957Z,6.33
2018-04-18T11:41:16.711Z,6.30
2018-04-18T11:43:44.344Z,6.23
2018-04-18T11:46:15.959Z,7.20
2018-04-18T11:48:43.550Z,7.70
2018-04-18T11:51:11.095Z,8.23
2018-04-18T11:53:38.609Z,7.67
2018-04-18T11:56:06.211Z,6.70
2018-04-18T11:58:35.306Z,6.30
2018-04-18T12:01:03.611Z,7.10
2018-04-18T12:03:31.123Z,8.13
2018-04-18T12:05:58.689Z,6.40
2018-04-18T12:08:26.855Z,6.93
2018-04-18T12:10:54.400Z,7.70
2018-04-18T12:13:21.929Z,5.97
2018-04-18T12:15:49.461Z,6.23
2018-04-18T12:18:17.008Z,5.83
2018-04-18T12:20:44.509Z,6.40
2018-04-18T12:23:12.041Z,6.40
2018-04-18T12:25:39.587Z,6.60
2018-04-18T12:28:07.129Z,6.77
2018-04-18T12:30:34.780Z,6.47
2018-04-18T12:33:03.136Z,5.70
2018-04-18T12:40:38.577Z,4.90
2018-04-18T12:43:06.100Z,4.50
2018-04-18T12:45:33.628Z,5.30
2018-04-18T12:48:01.156Z,4.90
2018-04-18T12:50:28.792Z,5.13
2018-04-18T12:52:56.345Z,5.27
2018-04-18T12:55:24.783Z,4.80
2018-04-18T12:57:52.924Z,5.30
2018-04-18T13:00:20.471Z,4.40
2018-04-18T13:02:48.190Z,5.20
2018-04-18T13:05:15.749Z,4.07
2018-04-18T13:07:43.273Z,3.77
2018-04-18T13:10:10.785Z,4.30
2018-04-18T13:12:38.332Z,4.80
2018-04-18T13:15:05.852Z,4.93
2018-04-18T13:17:33.539Z,5.07
2018-04-18T13:20:01.102Z,4.00
2018-04-18T13:22:30.703Z,4.33
2018-04-18T13:24:59.218Z,6.03
2018-04-18T13:27:26.928Z,4.43
2018-04-18T13:29:55.160Z,4.90
2018-04-18T13:32:23.581Z,5.30
2018-04-18T13:34:51.139Z,4.93
2018-04-18T13:37:19.105Z,4.63
2018-04-18T13:39:47.274Z,4.60
2018-04-18T13:42:14.918Z,4.90
2018-04-18T13:44:42.929Z,4.03
2018-04-18T13:47:12.083Z,4.53
2018-04-18T13:49:39.612Z,4.20
2018-04-18T13:52:07.144Z,4.70
2018-04-18T13:54:34.677Z,4.73
2018-04-18T13:57:02.301Z,4.87
2018-04-18T13:59:29.857Z,4.20
2018-04-18T14:01:57.375Z,3.97
2018-04-18T14:04:24.895Z,4.20
2018-04-18T14:06:52.477Z,4.73
2018-04-18T14:09:21.873Z,6.17
2018-04-18T14:11:49.443Z,4.90
2018-04-18T14:14:17.003Z,4.17
2018-04-18T14:16:45.273Z,4.20
2018-04-18T14:19:13.641Z,5.00
2018-04-18T14:21:41.157Z,4.63
2018-04-18T14:24:08.819Z,5.30
2018-04-18T14:26:36.389Z,6.00
2018-04-18T14:29:04.514Z,6.23
2018-04-18T14:31:32.791Z,5.87
2018-04-18T14:34:00.581Z,5.77
2018-04-18T14:36:28.182Z,5.90
2018-04-18T14:38:56.431Z,6.80
2018-04-18T14:41:24.834Z,5.60
2018-04-18T14:43:52.343Z,5.70
2018-04-18T14:46:20.694Z,5.20
2018-04-18T14:48:48.220Z,5.00
2018-04-18T14:51:16.754Z,4.57
2018-04-18T14:53:45.123Z,5.03
2018-04-18T14:56:12.639Z,4.47
2018-04-18T14:58:41.320Z,5.13
2018-04-18T15:01:09.682Z,4.23
2018-04-18T15:03:37.424Z,4.30
2018-04-18T15:06:04.965Z,4.07
2018-04-18T15:08:32.530Z,3.43
2018-04-18T15:11:01.748Z,3.70
2018-04-18T15:13:29.307Z,4.20
2018-04-18T15:15:57.678Z,3.83
2018-04-18T15:18:26.202Z,3.57
2018-04-18T15:20:53.705Z,4.10
2018-04-18T15:23:21.250Z,4.33
2018-04-18T15:25:49.727Z,4.30
2018-04-18T15:28:18.384Z,3.83
2018-04-18T15:30:45.913Z,4.17
2018-04-18T15:33:13.457Z,3.70
2018-04-18T15:35:40.995Z,4.30
2018-04-18T15:38:08.491Z,3.77
2018-04-18T15:40:36.020Z,3.63
2018-04-18T15:43:03.621Z,3.33
2018-04-18T15:45:32.844Z,3.43
2018-04-18T17:55:14.684Z,5.17
2018-04-18T17:57:42.931Z,5.30
2018-04-18T18:00:10.414Z,5.17
2018-04-18T18:02:38.685Z,5.20
2018-04-18T18:05:06.156Z,4.70
2018-04-18T18:07:34.442Z,5.67
2018-04-18T18:10:02.687Z,5.00
2018-04-18T18:12:30.157Z,5.50
2018-04-18T18:14:57.656Z,5.33
2018-04-18T18:17:25.134Z,5.40
2018-04-18T18:19:52.641Z,4.83
2018-04-18T18:22:20.916Z,5.93
2018-04-18T18:24:49.153Z,5.47
2018-04-18T18:27:16.653Z,5.27
2018-04-18T18:29:44.896Z,5.17
2018-04-18T18:32:12.393Z,6.40
2018-04-18T18:34:40.632Z,5.67
2018-04-18T18:37:08.124Z,4.67
2018-04-18T18:39:36.371Z,5.23
2018-04-18T18:42:03.870Z,6.50
2018-04-18T18:44:31.350Z,4.77
2018-04-18T18:46:58.850Z,4.60
2018-04-18T18:49:26.324Z,4.77
2018-04-18T18:51:54.572Z,5.00
2018-04-18T18:54:22.072Z,4.77
2018-04-18T18:56:50.351Z,4.80
2018-04-18T18:59:18.621Z,4.60
2018-04-18T19:01:46.873Z,6.30
2018-04-18T19:04:14.382Z,5.70
2018-04-18T19:06:41.851Z,4.83
2018-04-18T19:09:09.359Z,5.20
2018-04-18T19:11:38.028Z,4.27
2018-04-18T19:14:05.589Z,4.50
2018-04-18T19:16:33.076Z,4.40
2018-04-18T19:19:01.331Z,4.80
2018-04-18T19:21:28.800Z,5.43
2018-04-18T19:23:57.056Z,5.70
2018-04-18T19:26:24.540Z,5.90
2018-04-18T19:28:52.782Z,5.10
2018-04-18T19:31:20.273Z,4.30
2018-04-18T19:33:48.510Z,4.60
2018-04-18T19:36:16.029Z,4.27
2018-04-18T19:38:43.498Z,4.40
2018-04-18T19:41:10.980Z,4.20
2018-04-18T19:43:38.468Z,4.90
2018-04-18T19:46:05.938Z,4.60
2018-04-18T19:48:34.200Z,4.87
2018-04-18T19:51:01.675Z,5.47
2018-04-18T19:53:29.913Z,4.73
2018-04-18T19:55:57.417Z,5.67
2018-04-18T19:58:25.719Z,6.30
2018-04-18T20:00:53.217Z,5.30
2018-04-18T20:03:20.689Z,5.00
2018-04-18T20:05:48.164Z,5.90
2018-04-18T20:08:16.425Z,5.90
2018-04-18T20:10:43.896Z,4.73
2018-04-18T20:13:12.478Z,4.83
2018-04-18T20:15:40.709Z,5.00
2018-04-18T20:18:08.181Z,5.40
2018-04-18T20:20:35.670Z,5.73
2018-04-18T20:23:03.903Z,5.50
2018-04-18T20:25:31.405Z,4.83
2018-04-18T20:27:59.638Z,4.93
2018-04-18T20:30:27.110Z,5.33
2018-04-18T20:32:54.603Z,5.40
2018-04-18T20:35:22.845Z,6.20
2018-04-18T20:37:50.329Z,5.07
2018-04-18T20:40:18.572Z,4.87
2018-04-18T20:42:56.878Z,5.17
2018-04-18T20:45:24.353Z,6.40
2018-04-18T20:47:51.849Z,5.87
2018-04-18T20:50:19.324Z,5.77
2018-04-18T20:52:46.805Z,6.47
2018-04-18T20:55:14.292Z,6.00
2018-04-18T20:57:42.154Z,5.17
2018-04-18T21:00:09.659Z,6.60
2018-04-18T21:02:37.136Z,6.13
2018-04-18T21:05:04.610Z,9.60
2018-04-18T21:07:32.101Z,6.80
2018-04-18T21:10:00.342Z,7.33
2018-04-18T21:12:27.832Z,7.13
2018-04-18T21:14:56.071Z,6.27
2018-04-18T21:17:23.544Z,5.97
2018-04-18T21:19:51.037Z,6.63
2018-04-18T21:22:19.280Z,5.67
2018-04-18T21:24:46.782Z,7.87
2018-04-18T21:27:14.274Z,6.50
2018-04-18T21:29:41.745Z,6.13
2018-04-18T21:32:09.240Z,6.60
2018-04-18T21:34:37.484Z,5.60
2018-04-18T21:37:05.007Z,7.43
2018-04-18T21:39:32.484Z,6.40
2018-04-18T21:41:59.951Z,6.80
2018-04-18T21:44:27.441Z,7.77
2018-04-18T21:46:55.685Z,6.93
2018-04-18T21:49:23.173Z,6.60
2018-04-18T21:51:50.653Z,7.43
2018-04-18T21:54:18.892Z,6.80
2018-04-18T21:56:46.408Z,6.70
2018-04-18T21:59:13.879Z,7.13
2018-04-18T22:01:41.387Z,8.30
2018-04-18T22:04:09.627Z,7.60
2018-04-18T22:06:37.108Z,7.00
2018-04-18T22:09:04.831Z,8.00
2018-04-18T22:11:32.310Z,6.93
2018-04-18T22:14:00.417Z,7.37
2018-04-18T22:16:28.657Z,6.47
2018-04-18T22:18:56.138Z,7.67
2018-04-18T22:21:23.625Z,8.20
2018-04-18T22:23:51.993Z,8.60
2018-04-18T22:26:20.311Z,8.20
2018-04-18T22:28:47.790Z,6.90
2018-04-18T22:31:15.257Z,7.27
2018-04-18T22:33:42.747Z,7.30
2018-04-18T22:36:10.985Z,7.00
2018-04-18T22:38:38.479Z,7.70
2018-04-18T22:41:06.847Z,6.67
2018-04-18T22:43:34.348Z,6.37
2018-04-18T22:46:01.840Z,7.10
2018-04-18T22:48:29.329Z,7.40
2018-04-18T22:50:57.596Z,7.50
2018-04-18T22:53:25.069Z,7.40
2018-04-18T22:55:53.309Z,7.93
2018-04-18T22:58:20.805Z,7.27
2018-04-18T23:00:49.050Z,8.10
2018-04-18T23:03:16.546Z,7.83
2018-04-18T23:05:44.784Z,8.07
2018-04-18T23:08:12.260Z,6.93
2018-04-18T23:10:40.518Z,7.60
2018-04-18T23:13:08.002Z,9.33
2018-04-18T23:15:36.508Z,7.57
2018-04-18T23:18:03.985Z,7.90
2018-04-18T23:20:31.457Z,9.40
2018-04-18T23:22:58.957Z,8.27
2018-04-18T23:25:27.196Z,7.50
2018-04-18T23:27:54.691Z,7.97
2018-04-18T23:30:22.929Z,7.80
2018-04-18T23:32:50.412Z,7.40
2018-04-18T23:35:17.911Z,7.27
2018-04-18T23:37:45.387Z,7.00
2018-04-18T23:40:12.858Z,7.87
2018-04-18T23:42:40.356Z,7.47
2018-04-18T23:45:08.612Z,7.00
2018-04-18T23:47:36.096Z,8.27
2018-04-18T23:50:04.352Z,8.00
2018-04-18T23:52:31.821Z,8.47
2018-04-18T23:55:00.102Z,7.27
2018-04-18T23:57:28.358Z,7.23
2018-04-18T23:59:55.828Z,7.47
